Time;durP1;ratioP1;P1;durP2;ratioP2;P2;SDS_P1;SDS_P2;PMS_P1;PMS_P2;Temp;Humidity;BMP_temperature;BMP_pressure;BME280_temperature;BME280_humidity;BME280_pressure;Samples;Min_cycle;Max_cycle;Signal;HPM_P1;HPM_P2
2023/10/15 00:00:19;;;;;;;16.90;8.50;;;;;;;8.32;100.00;100524.35;109109;1254;74006;-54
2023/10/15 00:02:48;;;;;;;12.90;8.30;;;;;;;8.27;100.00;100517.88;109240;1253;66941;-55
2023/10/15 00:05:18;;;;;;;9.90;7.10;;;;;;;8.23;100.00;100515.22;109288;1254;71460;-54
2023/10/15 00:07:49;;;;;;;14.50;8.30;;;;;;;8.20;100.00;100509.49;109162;1254;58992;-54
2023/10/15 00:10:19;;;;;;;16.00;8.00;;;;;;;8.19;100.00;100508.92;109236;1254;58964;-54
2023/10/15 00:12:48;;;;;;;11.10;7.00;;;;;;;8.19;100.00;100506.36;109218;1254;72791;-54
2023/10/15 00:15:19;;;;;;;13.70;8.30;;;;;;;8.19;100.00;100503.53;109268;1254;66263;-54
2023/10/15 00:17:52;;;;;;;12.90;8.30;;;;;;;8.25;100.00;100506.00;109125;1254;72179;-56
2023/10/15 00:20:22;;;;;;;15.30;8.00;;;;;;;8.30;100.00;100507.75;109143;1253;60421;-54
2023/10/15 00:22:51;;;;;;;11.40;7.60;;;;;;;8.36;100.00;100504.17;109181;1254;60073;-54
2023/10/15 00:25:19;;;;;;;11.50;9.40;;;;;;;8.40;100.00;100502.17;108993;1254;333162;-57
2023/10/15 00:27:56;;;;;;;20.50;7.70;;;;;;;8.42;100.00;100501.11;109148;1259;65931;-59
2023/10/15 00:30:33;;;;;;;11.50;7.60;;;;;;;8.45;100.00;100497.73;109193;1254;71494;-60
2023/10/15 00:33:06;;;;;;;13.00;8.40;;;;;;;8.44;100.00;100500.18;109158;1254;58863;-55
2023/10/15 00:35:34;;;;;;;10.40;7.60;;;;;;;8.43;100.00;100494.90;109163;1254;59011;-56
2023/10/15 00:38:15;;;;;;;12.50;7.20;;;;;;;8.46;100.00;100494.86;109129;1254;74869;-56
2023/10/15 00:40:45;;;;;;;15.00;7.80;;;;;;;8.52;100.00;100492.27;109310;1253;65671;-56
2023/10/15 00:43:17;;;;;;;11.10;6.90;;;;;;;8.58;100.00;100489.95;109148;1254;71360;-59
2023/10/15 00:45:46;;;;;;;11.90;7.70;;;;;;;8.63;100.00;100489.33;109192;1254;61751;-60
2023/10/15 00:48:36;;;;;;;10.70;6.60;;;;;;;8.64;100.00;100491.48;109156;1254;59237;-57
2023/10/15 00:51:13;;;;;;;10.00;7.10;;;;;;;8.66;100.00;100490.83;109117;1255;74585;-54
2023/10/15 00:53:50;;;;;;;13.90;8.10;;;;;;;8.65;100.00;100487.77;109181;1254;66986;-57
2023/10/15 00:56:23;;;;;;;12.50;8.40;;;;;;;8.64;100.00;100488.06;109075;1254;71757;-56
2023/10/15 01:01:26;;;;;;;15.10;8.80;;;;;;;8.56;100.00;100485.98;109175;1254;59467;-60
2023/10/15 01:03:56;;;;;;;13.00;7.70;;;;;;;8.51;100.00;100479.66;109242;1254;73644;-55
2023/10/15 01:06:35;;;;;;;14.80;8.20;;;;;;;8.46;100.00;100478.13;109241;1254;66910;-59
2023/10/15 01:09:10;;;;;;;12.70;8.60;;;;;;;8.42;100.00;100478.48;109149;1254;72732;-57
2023/10/15 01:11:51;;;;;;;12.10;7.80;;;;;;;8.36;100.00;100479.00;109125;1253;59233;-56
2023/10/15 01:14:44;;;;;;;14.70;9.00;;;;;;;8.31;100.00;100475.45;109096;1253;59289;-56
2023/10/15 01:17:07;;;;;;;16.90;9.20;;;;;;;8.27;100.00;100479.09;109171;1254;73507;-56
2023/10/15 01:19:35;;;;;;;13.30;8.10;;;;;;;8.25;100.00;100478.98;109221;1254;66902;-59
2023/10/15 01:22:10;;;;;;;13.70;8.70;;;;;;;8.24;100.00;100477.92;109043;1254;71454;-57
2023/10/15 01:24:38;;;;;;;17.60;8.90;;;;;;;8.21;100.00;100474.90;109319;1254;58991;-59
2023/10/15 01:29:37;;;;;;;20.00;9.20;;;;;;;8.16;100.00;100471.82;109221;1253;75779;-55
2023/10/15 01:32:22;;;;;;;14.70;8.80;;;;;;;8.10;100.00;100467.08;109295;1254;66317;-54
2023/10/15 01:34:52;;;;;;;15.50;8.90;;;;;;;8.03;100.00;100465.38;109315;1254;71393;-54
2023/10/15 01:39:51;;;;;;;14.30;8.90;;;;;;;8.02;100.00;100466.38;109208;1254;59067;-55
2023/10/15 01:45:12;;;;;;;19.10;13.10;;;;;;;7.93;100.00;100464.52;109308;1253;66967;-55
2023/10/15 01:50:24;;;;;;;15.60;10.00;;;;;;;7.81;100.00;100460.63;109246;1254;62165;-54
2023/10/15 01:53:04;;;;;;;15.20;9.20;;;;;;;7.80;100.00;100462.82;109245;1254;59170;-56
2023/10/15 01:55:35;;;;;;;14.10;8.80;;;;;;;7.74;100.00;100458.91;109335;1253;74481;-54
2023/10/15 01:58:05;;;;;;;14.60;10.00;;;;;;;7.71;100.00;100457.67;109233;1253;65815;-55
2023/10/15 02:03:10;;;;;;;14.40;8.60;;;;;;;7.62;100.00;100459.48;109247;1253;61987;-54
2023/10/15 02:05:42;;;;;;;14.80;8.50;;;;;;;7.54;100.00;100456.52;109353;1254;58998;-54
2023/10/15 02:08:24;;;;;;;15.90;9.90;;;;;;;7.49;100.00;100454.58;109325;1253;74727;-55
2023/10/15 02:10:52;;;;;;;13.20;9.40;;;;;;;7.48;100.00;100449.73;109185;1254;66360;-55
2023/10/15 02:13:26;;;;;;;12.60;8.80;;;;;;;7.44;100.00;100443.19;109297;1254;72731;-55
2023/10/15 02:15:55;;;;;;;14.60;10.50;;;;;;;7.40;100.00;100440.77;109106;1254;61521;-54
2023/10/15 02:18:29;;;;;;;14.90;9.20;;;;;;;7.39;100.00;100437.14;109342;1253;60000;-57
2023/10/15 02:23:25;;;;;;;16.80;9.80;;;;;;;7.36;100.00;100436.59;109332;1253;65930;-55
2023/10/15 02:25:57;;;;;;;14.60;10.50;;;;;;;7.35;100.00;100432.40;109245;1254;71543;-55
2023/10/15 02:28:30;;;;;;;17.10;9.20;;;;;;;7.30;100.00;100430.25;109091;1254;61773;-57
2023/10/15 02:31:46;;;;;;;13.70;9.00;;;;;;;7.28;100.00;100426.68;109141;1254;60282;-55
2023/10/15 02:33:48;;;;;;;14.70;9.90;;;;;;;7.26;100.00;100425.65;109070;1254;73348;-57
2023/10/15 02:36:16;;;;;;;14.60;10.10;;;;;;;7.23;100.00;100425.09;109157;1254;66872;-55
2023/10/15 02:38:53;;;;;;;15.30;10.30;;;;;;;7.22;100.00;100426.71;109219;1254;72734;-55
2023/10/15 02:41:31;;;;;;;15.00;9.70;;;;;;;7.20;100.00;100424.39;109318;1253;61742;-55
2023/10/15 02:43:58;;;;;;;18.80;9.20;;;;;;;7.16;100.00;100419.05;109235;1254;59194;-55
2023/10/15 02:46:36;;;;;;;15.70;8.90;;;;;;;7.12;100.00;100416.27;109300;1254;74719;-55
2023/10/15 02:49:09;;;;;;;14.10;9.00;;;;;;;7.07;100.00;100417.03;109371;1253;66800;-55
2023/10/15 02:51:37;;;;;;;17.50;10.10;;;;;;;7.03;100.00;100415.08;109188;1254;70998;-55
2023/10/15 02:56:56;;;;;;;14.50;11.00;;;;;;;7.00;100.00;100408.09;109228;1253;60119;-55
2023/10/15 02:59:29;;;;;;;18.80;9.80;;;;;;;6.98;100.00;100402.06;109013;1256;74171;-56
2023/10/15 03:02:06;;;;;;;16.30;10.70;;;;;;;6.96;100.00;100401.92;109091;1254;66925;-55
2023/10/15 03:04:38;;;;;;;17.10;10.00;;;;;;;6.95;100.00;100399.81;109078;1254;72710;-55
2023/10/15 03:07:19;;;;;;;17.50;10.20;;;;;;;6.92;100.00;100401.09;109295;1253;59203;-55
2023/10/15 03:09:51;;;;;;;13.80;9.10;;;;;;;6.89;100.00;100395.23;109317;1253;59019;-55
2023/10/15 03:12:19;;;;;;;15.50;10.70;;;;;;;6.86;100.00;100393.84;109329;1253;74811;-55
2023/10/15 03:14:46;;;;;;;14.80;9.80;;;;;;;6.84;100.00;100394.16;109223;1253;66947;-55
2023/10/15 03:17:23;;;;;;;16.00;10.10;;;;;;;6.83;100.00;100394.81;109111;1253;73199;-55
2023/10/15 03:19:55;;;;;;;14.20;9.90;;;;;;;6.83;100.00;100388.88;109036;1254;60211;-56
2023/10/15 03:22:30;;;;;;;15.40;9.90;;;;;;;6.85;100.00;100387.47;109275;1253;60080;-59
2023/10/15 03:24:59;;;;;;;16.50;10.10;;;;;;;6.86;100.00;100383.29;109214;1253;74667;-57
2023/10/15 03:27:27;;;;;;;18.90;10.60;;;;;;;6.87;100.00;100383.56;109056;1257;66965;-57
2023/10/15 03:29:56;;;;;;;14.70;9.50;;;;;;;6.90;100.00;100384.11;109200;1254;71432;-56
2023/10/15 03:32:31;;;;;;;18.40;10.80;;;;;;;6.91;100.00;100384.16;109247;1253;60122;-57
2023/10/15 03:35:07;;;;;;;16.30;10.70;;;;;;;6.90;100.00;100385.65;109353;1253;59024;-56
2023/10/15 03:37:45;;;;;;;17.80;11.30;;;;;;;6.90;100.00;100386.16;109130;1254;74730;-54
2023/10/15 03:40:29;;;;;;;14.80;10.40;;;;;;;6.90;100.00;100385.80;109201;1254;67912;-56
2023/10/15 03:43:06;;;;;;;15.00;9.90;;;;;;;6.92;100.00;100381.44;109193;1254;71940;-56
2023/10/15 03:45:40;;;;;;;19.40;11.40;;;;;;;6.97;100.00;100379.35;109204;1254;60459;-57
2023/10/15 03:48:14;;;;;;;18.80;11.60;;;;;;;7.00;100.00;100378.58;109292;1253;59136;-56
2023/10/15 03:50:53;;;;;;;19.90;12.70;;;;;;;7.01;100.00;100376.71;109408;1253;74726;-53
2023/10/15 03:53:22;;;;;;;16.20;10.70;;;;;;;7.02;100.00;100378.17;109312;1253;66910;-54
2023/10/15 03:55:50;;;;;;;19.80;11.40;;;;;;;7.06;100.00;100374.14;109226;1253;72780;-54
2023/10/15 03:58:18;;;;;;;17.00;10.90;;;;;;;7.13;100.00;100375.84;109315;1253;61776;-56
2023/10/15 04:00:54;;;;;;;18.00;11.10;;;;;;;7.24;100.00;100375.73;109287;1253;60099;-54
2023/10/15 04:03:28;;;;;;;16.20;10.20;;;;;;;7.37;100.00;100378.43;109242;1253;74737;-55
2023/10/15 04:06:08;;;;;;;17.30;11.30;;;;;;;7.46;100.00;100381.55;109313;1253;67287;-55
2023/10/15 04:08:37;;;;;;;16.40;11.30;;;;;;;7.56;100.00;100383.00;109279;1253;71398;-58
2023/10/15 04:11:06;;;;;;;17.10;11.10;;;;;;;7.66;100.00;100387.62;109247;1253;61794;-55
2023/10/15 04:13:35;;;;;;;18.90;11.60;;;;;;;7.77;100.00;100386.27;109297;1257;59746;-55
2023/10/15 04:16:02;;;;;;;17.30;11.20;;;;;;;7.93;100.00;100387.73;109291;1253;74722;-55
2023/10/15 04:18:30;;;;;;;18.50;11.40;;;;;;;8.09;100.00;100385.02;109283;1253;66994;-57
2023/10/15 04:20:58;;;;;;;17.10;11.00;;;;;;;8.23;100.00;100386.38;109275;1253;72725;-55
2023/10/15 04:23:34;;;;;;;18.00;11.90;;;;;;;8.38;100.00;100391.02;109238;1253;59347;-54
2023/10/15 04:26:11;;;;;;;18.50;13.30;;;;;;;8.54;100.00;100388.10;109329;1253;60033;-55
2023/10/15 04:28:42;;;;;;;20.00;12.30;;;;;;;8.72;100.00;100391.86;109108;1254;74711;-58
2023/10/15 04:31:20;;;;;;;18.90;11.80;;;;;;;8.91;100.00;100386.66;109177;1254;66949;-54
2023/10/15 04:33:54;;;;;;;16.10;11.40;;;;;;;9.12;100.00;100384.89;109231;1254;71442;-55
2023/10/15 04:36:22;;;;;;;17.40;12.90;;;;;;;9.32;100.00;100386.98;109164;1254;61797;-56
2023/10/15 04:39:08;;;;;;;16.20;11.20;;;;;;;9.55;100.00;100383.67;109238;1254;59287;-56
2023/10/15 04:41:36;;;;;;;16.70;12.60;;;;;;;9.84;100.00;100392.15;109153;1254;73329;-55
2023/10/15 04:44:04;;;;;;;21.00;12.90;;;;;;;10.09;100.00;100389.67;109212;1254;65511;-55
2023/10/15 04:46:40;;;;;;;17.70;13.20;;;;;;;10.31;100.00;100396.56;109143;1254;71397;-56
2023/10/15 04:49:09;;;;;;;24.10;13.40;;;;;;;10.51;100.00;100393.56;109259;1253;61094;-56
2023/10/15 04:51:42;;;;;;;20.10;13.20;;;;;;;10.66;100.00;100396.11;109305;1253;60205;-56
2023/10/15 04:54:10;;;;;;;18.00;13.40;;;;;;;10.85;100.00;100395.95;109316;1253;75232;-57
2023/10/15 04:56:38;;;;;;;17.00;13.20;;;;;;;11.00;100.00;100399.23;109376;1253;66947;-56
2023/10/15 04:59:05;;;;;;;18.50;13.60;;;;;;;11.17;100.00;100399.17;109237;1253;72754;-56
2023/10/15 05:01:33;;;;;;;21.30;14.10;;;;;;;11.32;100.00;100395.75;109245;1253;61778;-56
2023/10/15 05:04:01;;;;;;;18.30;13.10;;;;;;;11.50;100.00;100396.09;109240;1253;58881;-56
2023/10/15 05:06:29;;;;;;;23.80;13.80;;;;;;;11.63;100.00;100393.77;109233;1253;74669;-56
2023/10/15 05:08:57;;;;;;;16.00;12.30;;;;;;;11.82;100.00;100390.19;109350;1253;66418;-56
2023/10/15 05:11:25;;;;;;;24.00;15.20;;;;;;;12.06;100.00;100394.52;109302;1253;71441;-55
2023/10/15 05:13:53;;;;;;;23.20;14.70;;;;;;;12.24;100.00;100390.09;109326;1252;60640;-58
2023/10/15 05:16:20;;;;;;;25.00;16.10;;;;;;;12.41;100.00;100390.08;109431;1252;61038;-56
2023/10/15 05:18:48;;;;;;;24.10;15.10;;;;;;;12.59;100.00;100387.55;109458;1253;74751;-55
2023/10/15 05:21:16;;;;;;;21.30;14.60;;;;;;;12.73;100.00;100386.23;109444;1253;66986;-56
2023/10/15 05:23:45;;;;;;;24.50;14.70;;;;;;;12.88;100.00;100386.77;109428;1253;72645;-58
2023/10/15 05:26:13;;;;;;;19.40;13.90;;;;;;;13.07;100.00;100381.23;109378;1253;62248;-57
2023/10/15 05:28:41;;;;;;;20.50;14.20;;;;;;;13.29;100.00;100379.84;109455;1252;60034;-56
2023/10/15 05:31:08;;;;;;;23.40;15.70;;;;;;;13.57;100.00;100375.14;109264;1253;74739;-56
2023/10/15 05:33:36;;;;;;;24.10;15.70;;;;;;;13.87;100.00;100373.15;109180;1254;66863;-56
2023/10/15 05:36:04;;;;;;;23.20;15.60;;;;;;;14.25;100.00;100367.55;109179;1254;72741;-56
2023/10/15 05:38:31;;;;;;;21.60;15.00;;;;;;;14.88;100.00;100362.11;109230;1254;60180;-55
2023/10/15 05:40:59;;;;;;;22.80;13.50;;;;;;;15.75;100.00;100350.90;109147;1254;59001;-57
2023/10/15 05:43:27;;;;;;;21.40;13.70;;;;;;;16.68;100.00;100331.86;109216;1254;74755;-59
2023/10/15 05:45:55;;;;;;;19.30;14.20;;;;;;;17.55;100.00;100304.98;109130;1254;67035;-55
2023/10/15 05:48:22;;;;;;;19.30;13.40;;;;;;;18.35;100.00;100267.83;109203;1254;72763;-56
2023/10/15 05:50:50;;;;;;;20.40;13.40;;;;;;;19.07;100.00;100225.64;109253;1253;59009;-55
2023/10/15 05:53:18;;;;;;;18.50;12.50;;;;;;;19.63;100.00;100189.34;109435;1252;60139;-55
2023/10/15 05:55:46;;;;;;;16.40;11.80;;;;;;;20.06;100.00;100170.66;109362;1253;74655;-55
2023/10/15 05:58:14;;;;;;;16.70;11.80;;;;;;;20.52;100.00;100159.08;109470;1253;67178;-55
2023/10/15 06:00:41;;;;;;;18.00;15.00;;;;;;;20.90;100.00;100153.59;109401;1252;71335;-55
2023/10/15 06:03:09;;;;;;;16.30;13.40;;;;;;;21.20;100.00;100152.20;109431;1252;60125;-55
2023/10/15 06:05:37;;;;;;;17.00;13.90;;;;;;;21.54;100.00;100151.46;109400;1254;58874;-55
2023/10/15 06:08:05;;;;;;;17.70;13.40;;;;;;;21.92;100.00;100145.30;109436;1253;75448;-55
2023/10/15 06:10:33;;;;;;;18.60;13.60;;;;;;;22.20;100.00;100140.58;109454;1253;67017;-55
2023/10/15 06:13:01;;;;;;;17.60;13.50;;;;;;;22.40;100.00;100134.66;109424;1252;72704;-56
2023/10/15 06:15:29;;;;;;;15.60;12.60;;;;;;;22.59;100.00;100136.11;109392;1253;60131;-55
2023/10/15 06:17:58;;;;;;;15.60;12.30;;;;;;;22.75;100.00;100134.56;109364;1253;59490;-57
2023/10/15 06:20:26;;;;;;;17.20;14.80;;;;;;;22.96;100.00;100132.34;109493;1253;74812;-56
2023/10/15 06:22:57;;;;;;;16.60;13.10;;;;;;;23.17;100.00;100137.30;109429;1253;66959;-56
2023/10/15 06:25:25;;;;;;;16.00;12.50;;;;;;;23.41;99.93;100137.67;109407;1252;72740;-56
2023/10/15 06:27:52;;;;;;;15.40;12.00;;;;;;;23.60;98.77;100133.19;109370;1252;59919;-57
2023/10/15 06:30:20;;;;;;;17.10;12.80;;;;;;;23.85;90.36;100126.40;109377;1253;59185;-56
2023/10/15 06:32:52;;;;;;;15.30;12.30;;;;;;;24.05;84.93;100123.67;109197;1253;74751;-56
2023/10/15 06:35:22;;;;;;;14.10;12.00;;;;;;;24.18;84.17;100116.79;109338;1253;67307;-56
2023/10/15 06:37:51;;;;;;;15.50;13.40;;;;;;;24.43;78.50;100115.02;109226;1253;71849;-57
2023/10/15 06:40:19;;;;;;;15.40;11.10;;;;;;;24.85;78.23;100112.70;109303;1253;59374;-56
2023/10/15 06:42:51;;;;;;;14.00;11.40;;;;;;;25.23;73.09;100114.00;109328;1253;60084;-56
2023/10/15 06:45:20;;;;;;;14.60;11.30;;;;;;;25.36;68.73;100113.05;109340;1253;74713;-55
2023/10/15 06:47:51;;;;;;;15.80;11.10;;;;;;;25.59;66.64;100116.94;109268;1253;66097;-57
2023/10/15 06:50:21;;;;;;;17.00;15.10;;;;;;;25.81;61.21;100112.78;109307;1253;72779;-55
2023/10/15 06:52:53;;;;;;;16.00;13.30;;;;;;;25.98;59.12;100115.91;109258;1253;60123;-55
2023/10/15 06:55:21;;;;;;;16.50;11.90;;;;;;;26.14;55.34;100108.89;109332;1252;60094;-56
2023/10/15 06:57:49;;;;;;;13.60;10.00;;;;;;;26.14;50.98;100108.00;109376;1253;73474;-56
2023/10/15 07:00:23;;;;;;;12.40;9.00;;;;;;;26.18;51.24;100106.48;109421;1253;66153;-55
2023/10/15 07:02:52;;;;;;;11.80;9.10;;;;;;;26.13;47.15;100105.45;109463;1254;72706;-55
2023/10/15 07:05:23;;;;;;;10.30;8.60;;;;;;;25.89;45.52;100102.96;109398;1253;59221;-55
2023/10/15 07:07:51;;;;;;;13.70;9.70;;;;;;;25.63;45.41;100105.94;109400;1253;60092;-55
2023/10/15 07:10:21;;;;;;;11.90;8.00;;;;;;;25.37;45.33;100104.40;109423;1253;74736;-55
2023/10/15 07:12:52;;;;;;;11.10;8.50;;;;;;;25.18;46.01;100098.52;109426;1253;66079;-56
2023/10/15 07:15:23;;;;;;;11.90;8.50;;;;;;;25.20;48.20;100097.27;109380;1253;74898;-58
2023/10/15 07:17:51;;;;;;;14.20;10.40;;;;;;;25.43;46.94;100095.46;109433;1252;60189;-56
2023/10/15 07:20:26;;;;;;;14.40;9.20;;;;;;;25.68;45.01;100088.53;109327;1253;59212;-56
2023/10/15 07:22:56;;;;;;;12.10;8.80;;;;;;;25.89;45.21;100087.57;109242;1253;74709;-58
2023/10/15 07:25:24;;;;;;;12.90;10.10;;;;;;;26.25;43.80;100082.02;109292;1253;67007;-56
2023/10/15 07:27:54;;;;;;;13.00;10.20;;;;;;;26.53;42.08;100077.89;109240;1253;72634;-56
2023/10/15 07:30:22;;;;;;;11.40;8.30;;;;;;;26.75;39.62;100075.38;109302;1253;59600;-56
2023/10/15 07:32:59;;;;;;;15.40;12.00;;;;;;;26.81;38.55;100065.42;109287;1253;60010;-56
2023/10/15 07:35:28;;;;;;;10.40;7.50;;;;;;;26.90;38.31;100060.45;109329;1253;73490;-56
2023/10/15 07:37:56;;;;;;;8.40;6.30;;;;;;;26.97;36.28;100059.89;109294;1253;66961;-56
2023/10/15 07:40:27;;;;;;;9.30;6.70;;;;;;;26.93;36.09;100058.19;109302;1253;72727;-56
2023/10/15 07:42:59;;;;;;;8.20;6.40;;;;;;;27.05;35.65;100056.25;109227;1253;59489;-57
2023/10/15 07:45:30;;;;;;;10.60;6.10;;;;;;;27.21;35.02;100048.95;109265;1253;59410;-55
2023/10/15 07:47:59;;;;;;;7.80;5.50;;;;;;;27.13;34.14;100046.31;109351;1253;73446;-55
2023/10/15 07:50:31;;;;;;;9.70;6.60;;;;;;;26.96;34.04;100043.33;109395;1253;65928;-56
2023/10/15 07:52:58;;;;;;;8.70;5.40;;;;;;;26.93;34.45;100040.37;109177;1253;73193;-56
2023/10/15 07:55:27;;;;;;;9.50;6.40;;;;;;;27.10;35.47;100038.93;109240;1253;60166;-56
2023/10/15 07:57:55;;;;;;;9.40;5.80;;;;;;;27.44;34.92;100030.74;109238;1253;60554;-56
2023/10/15 08:00:33;;;;;;;8.10;5.60;;;;;;;27.73;33.97;100030.39;109249;1253;75133;-55
2023/10/15 08:03:01;;;;;;;7.80;5.30;;;;;;;27.89;33.51;100030.35;109207;1254;66968;-56
2023/10/15 08:05:31;;;;;;;8.00;5.50;;;;;;;27.98;32.67;100027.56;109236;1253;70676;-55
2023/10/15 08:08:02;;;;;;;8.70;5.90;;;;;;;27.97;32.39;100024.67;109262;1253;59401;-56
2023/10/15 08:10:34;;;;;;;7.60;5.70;;;;;;;27.92;31.92;100019.61;109264;1253;60109;-58
2023/10/15 08:13:05;;;;;;;7.10;5.00;;;;;;;27.89;31.92;100018.34;109252;1253;75180;-55
2023/10/15 08:15:36;;;;;;;10.50;6.20;;;;;;;27.90;31.34;100015.27;109260;1253;65485;-55
2023/10/15 08:18:04;;;;;;;8.90;5.90;;;;;;;27.76;31.21;100013.76;109241;1253;72630;-55
2023/10/15 08:20:32;;;;;;;9.70;5.80;;;;;;;27.63;31.63;100011.71;109211;1253;59082;-55
2023/10/15 08:23:00;;;;;;;7.20;5.70;;;;;;;27.63;31.99;100009.67;109191;1253;62698;-57
2023/10/15 08:25:31;;;;;;;9.90;6.70;;;;;;;27.66;30.99;100005.91;109238;1253;74752;-55
2023/10/15 08:28:01;;;;;;;9.20;6.00;;;;;;;27.51;30.89;100003.61;109290;1253;66987;-55
2023/10/15 08:30:30;;;;;;;8.60;6.10;;;;;;;27.27;31.28;100000.05;109178;1253;71120;-57
2023/10/15 08:32:58;;;;;;;7.80;6.50;;;;;;;27.15;32.00;99995.97;109214;1253;60098;-55
2023/10/15 08:35:26;;;;;;;11.20;6.60;;;;;;;27.31;32.10;99991.68;109256;1253;60144;-54
2023/10/15 08:37:54;;;;;;;9.10;6.10;;;;;;;27.48;32.03;99987.23;109241;1253;74678;-55
2023/10/15 08:40:21;;;;;;;12.40;7.10;;;;;;;27.63;31.34;99985.81;109122;1253;65650;-57
2023/10/15 08:43:10;;;;;;;9.30;7.00;;;;;;;27.70;31.00;99982.02;109089;1253;71450;-55
2023/10/15 08:45:39;;;;;;;10.70;6.80;;;;;;;27.86;31.31;99981.20;109164;1253;60139;-55
2023/10/15 08:48:09;;;;;;;8.90;6.50;;;;;;;28.02;30.33;99974.89;109134;1254;60101;-56
2023/10/15 08:50:37;;;;;;;9.30;6.70;;;;;;;27.95;29.69;99971.77;109186;1253;73888;-55
2023/10/15 08:53:07;;;;;;;7.60;6.40;;;;;;;27.82;29.95;99965.77;109283;1254;65771;-55
2023/10/15 08:55:38;;;;;;;7.00;5.60;;;;;;;27.74;30.13;99968.63;109222;1253;73863;-55
2023/10/15 08:58:06;;;;;;;;;;;;;;;27.83;30.36;99963.67;109151;1254;60160;-55
2023/10/15 09:00:36;;;;;;;9.40;6.40;;;;;;;27.96;29.80;99961.09;109185;1254;59052;-55
2023/10/15 09:03:04;;;;;;;6.80;4.40;;;;;;;27.98;29.21;99955.87;109242;1253;73733;-55
2023/10/15 09:05:40;;;;;;;7.90;5.10;;;;;;;27.87;28.90;99950.04;109204;1253;65645;-56
2023/10/15 09:08:08;;;;;;;9.70;6.40;;;;;;;27.77;28.97;99946.47;109152;1254;72764;-55
2023/10/15 09:10:40;;;;;;;11.40;7.60;;;;;;;27.70;29.03;99942.13;109115;1254;59382;-55
2023/10/15 09:13:15;;;;;;;8.10;5.90;;;;;;;27.61;29.14;99939.77;109189;1253;60188;-55
2023/10/15 09:15:49;;;;;;;8.10;6.80;;;;;;;27.53;28.92;99937.07;109135;1253;74737;-56
2023/10/15 09:18:35;;;;;;;9.80;5.70;;;;;;;27.57;29.20;99930.70;109201;1253;65753;-55
2023/10/15 09:21:06;;;;;;;6.90;5.10;;;;;;;27.66;29.12;99925.20;109224;1254;72911;-55
2023/10/15 09:23:37;;;;;;;;;;;;;;;27.68;28.92;99918.17;109158;1254;62419;-56
2023/10/15 09:26:06;;;;;;;9.00;5.50;;;;;;;27.67;28.98;99915.70;109034;1254;59458;-55
2023/10/15 09:28:35;;;;;;;7.40;5.50;;;;;;;27.63;29.20;99910.59;109176;1255;75081;-56
2023/10/15 09:31:06;;;;;;;8.00;5.70;;;;;;;27.39;29.58;99914.19;109260;1253;67600;-55
2023/10/15 09:33:33;;;;;;;8.20;5.40;;;;;;;27.19;29.68;99908.17;109132;1255;72736;-56
2023/10/15 09:36:04;;;;;;;7.40;5.80;;;;;;;27.09;30.08;99901.38;109217;1255;59284;-56
2023/10/15 09:38:32;;;;;;;7.90;5.80;;;;;;;27.12;30.24;99893.02;109244;1255;60088;-56
2023/10/15 09:41:01;;;;;;;9.30;6.40;;;;;;;27.25;29.77;99890.17;109247;1253;74677;-56
2023/10/15 09:43:31;;;;;;;10.20;7.40;;;;;;;27.30;30.00;99883.89;109166;1256;66765;-56
2023/10/15 09:45:59;;;;;;;7.50;6.30;;;;;;;27.30;29.86;99883.84;109339;1253;72786;-57
2023/10/15 09:48:27;;;;;;;10.50;8.20;;;;;;;27.22;30.44;99875.69;109239;1253;60369;-56
2023/10/15 09:50:59;;;;;;;11.10;8.10;;;;;;;27.27;30.30;99873.17;109241;1253;60077;-57
2023/10/15 09:53:28;;;;;;;9.40;7.80;;;;;;;27.23;29.53;99871.81;109176;1253;75674;-56
2023/10/15 09:55:57;;;;;;;15.00;12.70;;;;;;;27.04;29.94;99866.16;109260;1253;65841;-56
2023/10/15 09:58:35;;;;;;;9.90;7.90;;;;;;;26.93;30.26;99863.67;109180;1254;72715;-57
2023/10/15 10:01:16;;;;;;;13.10;11.70;;;;;;;26.93;29.99;99856.35;109086;1253;61177;-57
2023/10/15 10:03:47;;;;;;;13.30;11.90;;;;;;;26.86;30.01;99851.69;109039;1253;60090;-56
2023/10/15 10:06:38;;;;;;;9.40;6.70;;;;;;;26.80;29.93;99847.48;109363;1253;75136;-56
2023/10/15 10:09:28;;;;;;;9.90;7.70;;;;;;;26.77;30.34;99842.70;109176;1255;65626;-56
2023/10/15 10:12:05;;;;;;;23.60;19.30;;;;;;;26.83;30.00;99842.98;109194;1254;72756;-57
2023/10/15 10:14:50;;;;;;;11.70;7.90;;;;;;;26.95;29.80;99836.85;109151;1254;60111;-56
2023/10/15 10:17:19;;;;;;;9.20;6.80;;;;;;;26.96;30.02;99827.73;109206;1254;59407;-56
2023/10/15 10:19:52;;;;;;;13.50;7.00;;;;;;;27.02;29.97;99824.16;109069;1254;73302;-56
2023/10/15 10:22:23;;;;;;;11.10;5.90;;;;;;;27.02;29.86;99823.74;109206;1254;69714;-56
2023/10/15 10:24:50;;;;;;;7.90;5.90;;;;;;;27.10;29.61;99818.86;109205;1254;72741;-56
2023/10/15 10:27:18;;;;;;;8.00;6.30;;;;;;;27.13;29.38;99820.66;109203;1254;60155;-56
2023/10/15 10:29:52;;;;;;;8.10;5.90;;;;;;;27.03;29.33;99814.44;109193;1254;59412;-56
2023/10/15 10:32:21;;;;;;;8.80;6.00;;;;;;;26.97;29.40;99817.92;109240;1254;74815;-56
2023/10/15 10:35:15;;;;;;;9.40;6.60;;;;;;;26.90;29.28;99810.41;109340;1254;65528;-56
2023/10/15 10:38:02;;;;;;;9.10;6.30;;;;;;;26.91;29.55;99806.92;109142;1254;71906;-57
2023/10/15 10:40:52;;;;;;;8.20;6.00;;;;;;;26.87;29.76;99805.40;109183;1254;60194;-56
2023/10/15 10:43:21;;;;;;;9.50;6.40;;;;;;;26.90;30.16;99799.50;109188;1254;58890;-56
2023/10/15 10:46:15;;;;;;;9.00;5.60;;;;;;;27.00;29.76;99793.92;109197;1254;74671;-56
2023/10/15 10:48:43;;;;;;;7.70;5.10;;;;;;;26.96;29.21;99795.63;109200;1254;66114;-57
2023/10/15 10:51:12;;;;;;;11.90;7.00;;;;;;;26.92;28.91;99790.79;109142;1254;72750;-56
2023/10/15 10:54:06;;;;;;;7.30;5.60;;;;;;;26.91;28.74;99787.98;109266;1253;60124;-56
2023/10/15 10:56:40;;;;;;;7.90;5.70;;;;;;;26.92;28.61;99786.38;109059;1253;60039;-56
2023/10/15 10:59:08;;;;;;;7.40;4.50;;;;;;;26.98;28.90;99781.46;109227;1253;74708;-57
2023/10/15 11:01:39;;;;;;;8.90;6.40;;;;;;;27.08;28.71;99778.98;109197;1253;65695;-58
2023/10/15 11:04:07;;;;;;;;;;;;;;;27.17;27.80;99772.73;109235;1253;73877;-56
2023/10/15 11:06:39;;;;;;;7.30;4.70;;;;;;;27.18;27.23;99768.69;109217;1253;60091;-57
2023/10/15 11:09:16;;;;;;;5.80;4.60;;;;;;;27.18;27.08;99767.30;109179;1253;59151;-57
2023/10/15 11:11:45;;;;;;;11.30;5.90;;;;;;;27.21;27.11;99767.23;109074;1255;74777;-57
2023/10/15 11:14:18;;;;;;;9.60;6.40;;;;;;;27.16;27.35;99760.55;109220;1254;66092;-57
2023/10/15 11:16:46;;;;;;;7.20;5.50;;;;;;;27.16;27.45;99756.48;109198;1253;72231;-57
2023/10/15 11:19:17;;;;;;;7.50;5.70;;;;;;;27.08;26.51;99750.83;109149;1253;60189;-57
2023/10/15 11:21:45;;;;;;;7.20;5.90;;;;;;;26.87;26.48;99743.42;109159;1253;59415;-56
2023/10/15 11:24:13;;;;;;;8.90;6.10;;;;;;;26.64;27.24;99739.34;109217;1253;74815;-56
2023/10/15 11:26:45;;;;;;;7.10;5.50;;;;;;;26.59;27.40;99737.48;109345;1253;67074;-56
2023/10/15 11:29:13;;;;;;;8.00;5.10;;;;;;;26.56;26.89;99733.68;109185;1253;72725;-59
2023/10/15 11:31:43;;;;;;;6.70;5.20;;;;;;;26.42;27.39;99726.39;109136;1253;60751;-56
2023/10/15 11:34:20;;;;;;;8.10;6.30;;;;;;;26.35;27.52;99728.10;109147;1253;59618;-56
2023/10/15 11:37:01;;;;;;;9.80;6.70;;;;;;;26.24;27.26;99722.02;109042;1253;73432;-56
2023/10/15 11:39:38;;;;;;;8.40;5.30;;;;;;;26.09;27.33;99721.48;109284;1253;67080;-57
2023/10/15 11:42:07;;;;;;;7.20;5.40;;;;;;;25.90;27.64;99718.98;108924;1255;72663;-57
2023/10/15 11:44:42;;;;;;;10.90;7.90;;;;;;;25.81;27.74;99717.88;109262;1253;59407;-57
2023/10/15 11:47:15;;;;;;;9.50;6.80;;;;;;;25.71;28.11;99718.80;109187;1253;60126;-57
2023/10/15 11:49:44;;;;;;;10.80;7.00;;;;;;;25.67;28.25;99715.23;109385;1252;75195;-56